Grand Forks, Canada
Current Conditions -  °F | °C
As of 5:00 PM on Tuesday 21 Oct 2014 (Local Time) from CYCG Reporting Station
Broken Clouds Broken Clouds  
Wind Chill: 55°   Ceiling: 8500
Heat Index: 55°   Visibility: 15mi
Dew Point: 46°   Wind: 10mph
Humidity: 72%   Direction: 190°S
Pressure: 29.88"   Gusts: NA
Location:  49.05°N, 118.47°W
Report Text: CYCG 220000Z 19009KT 15SM SCT050 BKN085 13/08 A2988 RMK SC3AC3 SLP122 DENSITY ALT 1800FT
Loading
Personal Weather Stations






























Interactive Weather Map
Tropical Storm Tracking
New forecast layout! Learn more

10-Day Weather Forecast

Advertisements
Track Severe Weather on mobile